Time;durP1;ratioP1;P1;durP2;ratioP2;P2;SDS_P1;SDS_P2;PMS_P1;PMS_P2;Temp;Humidity;BMP_temperature;BMP_pressure;BME280_temperature;BME280_humidity;BME280_pressure;Samples;Min_cycle;Max_cycle;Signal;HPM_P1;HPM_P2
2023/07/30 00:01:12;;;;;;;6.05;3.83;;;;;;;21.65;66.76;95024.38;4954112;28;20721;-77
2023/07/30 00:03:38;;;;;;;7.13;3.95;;;;;;;21.66;66.50;95025.97;4938216;28;20240;-78
2023/07/30 00:06:04;;;;;;;7.47;3.90;;;;;;;21.61;66.84;95017.97;4949262;28;20352;-77
2023/07/30 00:08:29;;;;;;;7.05;3.75;;;;;;;21.53;67.40;95019.31;4950504;28;20240;-76
2023/07/30 00:10:57;;;;;;;6.38;3.70;;;;;;;21.53;66.82;95016.63;4943342;28;20236;-77
2023/07/30 00:13:22;;;;;;;5.07;3.60;;;;;;;21.61;66.98;95020.66;4928602;28;20237;-78
2023/07/30 00:15:48;;;;;;;6.05;3.80;;;;;;;21.39;67.47;95016.38;4950891;28;20756;-77
2023/07/30 00:18:14;;;;;;;5.15;3.60;;;;;;;21.57;66.94;95022.22;4932559;28;20236;-75
2023/07/30 00:20:39;;;;;;;5.60;3.70;;;;;;;21.47;67.36;95025.66;4935241;28;20248;-75
2023/07/30 00:23:05;;;;;;;9.07;3.63;;;;;;;21.24;68.19;95020.84;4940075;28;20256;-76
2023/07/30 00:25:30;;;;;;;5.32;3.70;;;;;;;21.35;67.57;95014.50;4937295;28;20716;-76
2023/07/30 00:27:56;;;;;;;4.05;3.47;;;;;;;21.43;67.77;95016.63;4944772;28;20315;-76
2023/07/30 00:30:21;;;;;;;5.55;3.60;;;;;;;21.42;67.30;95015.81;4941998;28;20229;-76
2023/07/30 00:32:47;;;;;;;5.78;3.70;;;;;;;21.43;67.70;95020.09;4954277;28;20267;-77
2023/07/30 00:35:13;;;;;;;5.50;4.00;;;;;;;21.21;68.37;95011.50;4935046;28;20275;-77
2023/07/30 00:37:38;;;;;;;5.32;3.67;;;;;;;21.28;68.24;94998.75;4933411;28;20235;-76
2023/07/30 00:40:04;;;;;;;5.28;3.53;;;;;;;21.19;68.62;95003.00;4926911;28;20251;-76
2023/07/30 00:42:30;;;;;;;6.05;3.72;;;;;;;21.08;69.42;95004.03;4946824;28;20256;-76
2023/07/30 00:44:55;;;;;;;4.70;3.53;;;;;;;21.19;68.63;95008.31;4927496;28;20359;-75
2023/07/30 00:47:21;;;;;;;7.40;4.03;;;;;;;21.21;68.32;95016.03;4993778;28;20224;-76
2023/07/30 00:49:47;;;;;;;7.18;3.90;;;;;;;21.35;67.69;95007.28;4929340;29;20240;-76
2023/07/30 00:52:12;;;;;;;7.05;3.70;;;;;;;21.28;67.67;95009.41;4918957;28;20229;-76
2023/07/30 00:54:38;;;;;;;6.35;3.80;;;;;;;21.23;68.33;95012.06;4920651;29;20237;-76
2023/07/30 00:57:04;;;;;;;5.78;3.95;;;;;;;21.22;68.22;95009.66;4940825;28;20257;-76
2023/07/30 00:59:30;;;;;;;5.63;3.83;;;;;;;21.21;67.80;95013.38;4917413;29;20241;-76
2023/07/30 01:01:55;;;;;;;7.45;3.72;;;;;;;21.16;67.98;95016.06;4972962;28;20244;-75
2023/07/30 01:04:21;;;;;;;6.65;3.63;;;;;;;21.08;68.00;95014.69;4933156;28;20225;-78
2023/07/30 01:06:46;;;;;;;4.50;3.33;;;;;;;21.00;68.43;95004.50;4928659;29;20287;-77
2023/07/30 01:09:12;;;;;;;5.53;3.80;;;;;;;20.97;68.65;95007.69;4926618;29;20241;-76
2023/07/30 01:11:37;;;;;;;6.03;3.70;;;;;;;21.08;68.17;95009.38;4932111;29;20287;-77
2023/07/30 01:14:03;;;;;;;6.88;3.72;;;;;;;21.15;67.97;95014.44;4930436;29;20282;-77
2023/07/30 01:16:29;;;;;;;6.07;3.75;;;;;;;21.20;67.85;95017.13;4972539;28;20244;-75
2023/07/30 01:18:54;;;;;;;6.18;3.97;;;;;;;20.98;68.17;95019.16;4934558;29;20238;-76
2023/07/30 01:21:20;;;;;;;8.52;3.70;;;;;;;20.88;69.44;95019.91;4929082;29;20936;-77
2023/07/30 01:23:45;;;;;;;8.30;3.75;;;;;;;20.91;69.32;95026.56;4965454;28;20240;-75
2023/07/30 01:26:12;;;;;;;5.72;3.70;;;;;;;20.97;68.40;95018.34;4927222;28;20233;-76
2023/07/30 01:28:42;;;;;;;6.35;3.67;;;;;;;20.94;69.06;95013.56;4922439;29;20324;-76
2023/07/30 01:31:08;;;;;;;5.03;3.58;;;;;;;20.71;69.67;95009.47;4998444;28;20229;-76
2023/07/30 01:33:33;;;;;;;6.95;3.78;;;;;;;20.60;70.34;95017.66;4979819;28;20829;-76
2023/07/30 01:35:59;;;;;;;6.00;3.53;;;;;;;20.51;70.91;95014.72;4952080;28;20263;-76
2023/07/30 01:38:25;;;;;;;5.95;3.50;;;;;;;20.57;70.68;95015.50;4958315;28;20225;-77
2023/07/30 01:40:51;;;;;;;5.55;3.53;;;;;;;20.61;70.34;95012.06;4959817;28;20374;-77
2023/07/30 01:43:16;;;;;;;6.97;3.78;;;;;;;20.57;70.67;95018.97;4991372;28;20233;-76
2023/07/30 01:45:42;;;;;;;4.68;3.50;;;;;;;20.61;70.57;95013.97;4923506;29;20230;-76
2023/07/30 01:48:08;;;;;;;6.55;3.50;;;;;;;20.38;71.17;95023.13;4934659;28;20236;-77
2023/07/30 01:50:33;;;;;;;6.63;3.53;;;;;;;20.54;70.82;95018.72;4936954;29;20847;-76
2023/07/30 01:52:59;;;;;;;5.18;3.72;;;;;;;20.42;71.30;95020.78;4951882;28;20233;-76
2023/07/30 01:55:24;;;;;;;6.72;3.60;;;;;;;20.45;71.80;95018.38;4976044;28;20233;-75
2023/07/30 01:57:50;;;;;;;6.85;3.70;;;;;;;20.53;71.08;95011.78;4923452;28;20228;-76
2023/07/30 02:00:15;;;;;;;7.22;3.45;;;;;;;20.42;71.52;95021.56;4984438;28;20232;-75
2023/07/30 02:02:41;;;;;;;6.00;3.60;;;;;;;20.50;71.33;95017.63;4919778;29;20263;-77
2023/07/30 02:05:06;;;;;;;6.38;4.05;;;;;;;20.52;71.11;95015.50;4920527;29;20240;-76
2023/07/30 02:07:32;;;;;;;5.00;3.80;;;;;;;20.35;71.88;95022.88;4933913;28;20268;-77
2023/07/30 02:09:57;;;;;;;9.65;3.92;;;;;;;20.15;73.03;95028.81;4934431;28;20305;-76
2023/07/30 02:12:23;;;;;;;6.30;3.88;;;;;;;20.13;73.20;95022.97;4952899;28;20230;-77
2023/07/30 02:14:48;;;;;;;5.68;3.53;;;;;;;20.24;73.01;95022.00;4924373;29;20723;-78
2023/07/30 02:17:14;;;;;;;5.50;3.70;;;;;;;20.26;73.53;95029.69;4922422;29;20244;-76
2023/07/30 02:19:40;;;;;;;7.55;4.03;;;;;;;20.28;73.36;95027.59;4923705;28;20957;-76
2023/07/30 02:22:05;;;;;;;7.45;4.00;;;;;;;20.26;73.59;95025.19;4920582;29;20237;-77
2023/07/30 02:24:31;;;;;;;7.80;3.92;;;;;;;20.23;73.85;95028.34;5036461;28;20233;-77
2023/07/30 02:26:56;;;;;;;5.18;3.80;;;;;;;20.02;74.48;95030.06;4971664;28;20244;-77
2023/07/30 02:29:22;;;;;;;6.30;3.85;;;;;;;20.05;74.34;95032.22;4936280;28;20229;-75
2023/07/30 02:31:47;;;;;;;6.38;3.92;;;;;;;20.04;74.43;95029.78;4933825;28;20279;-76
2023/07/30 02:34:13;;;;;;;4.70;3.70;;;;;;;20.03;74.51;95039.63;4949008;28;20298;-78
2023/07/30 02:36:39;;;;;;;5.70;3.63;;;;;;;19.99;74.66;95038.53;4936295;28;20228;-76
2023/07/30 02:39:04;;;;;;;6.40;4.00;;;;;;;19.91;74.94;95031.03;4949626;28;20657;-77
2023/07/30 02:41:30;;;;;;;7.78;3.80;;;;;;;20.05;74.40;95034.88;4954147;28;20255;-76
2023/07/30 02:43:55;;;;;;;5.65;4.13;;;;;;;19.81;75.46;95038.13;4942492;28;20267;-76
2023/07/30 02:46:21;;;;;;;7.15;3.80;;;;;;;19.85;75.26;95040.00;4937712;28;20290;-76
2023/07/30 02:48:46;;;;;;;5.68;4.07;;;;;;;19.76;75.42;95038.88;4938743;28;20236;-76
2023/07/30 02:51:12;;;;;;;5.70;3.88;;;;;;;19.86;74.92;95041.63;4964721;28;20342;-77
2023/07/30 02:53:37;;;;;;;6.05;3.83;;;;;;;19.81;75.03;95038.13;4951352;28;20238;-75
2023/07/30 02:56:03;;;;;;;5.95;3.75;;;;;;;19.82;74.76;95040.50;4947148;28;20236;-76
2023/07/30 02:58:28;;;;;;;6.55;4.20;;;;;;;19.81;75.06;95040.78;4950929;28;20240;-76
2023/07/30 03:00:54;;;;;;;5.90;3.70;;;;;;;19.80;75.41;95045.28;4944610;28;20243;-76
2023/07/30 03:03:19;;;;;;;6.22;3.72;;;;;;;19.75;75.18;95037.28;4960086;28;20240;-75
2023/07/30 03:05:45;;;;;;;7.68;3.90;;;;;;;19.92;74.67;95043.25;4950350;28;20240;-77
2023/07/30 03:08:11;;;;;;;6.13;4.00;;;;;;;19.97;74.28;95040.66;5027799;28;20236;-78
2023/07/30 03:10:36;;;;;;;5.45;3.63;;;;;;;19.90;74.05;95056.00;4971498;28;20347;-77
2023/07/30 03:13:02;;;;;;;7.45;3.80;;;;;;;20.05;73.20;95053.47;4922122;29;20307;-76
2023/07/30 03:15:28;;;;;;;4.35;3.50;;;;;;;20.11;72.71;95056.94;4920449;28;20240;-77
2023/07/30 03:17:53;;;;;;;6.13;3.50;;;;;;;20.17;72.37;95045.31;4918888;29;20256;-77
2023/07/30 03:20:19;;;;;;;5.40;3.58;;;;;;;20.15;72.63;95047.44;4982223;28;20279;-77
2023/07/30 03:22:44;;;;;;;5.82;3.53;;;;;;;20.08;72.92;95052.16;4933389;29;20240;-78
2023/07/30 03:25:10;;;;;;;5.00;3.58;;;;;;;20.07;72.79;95047.88;4930520;28;20245;-77
2023/07/30 03:27:35;;;;;;;5.63;3.40;;;;;;;19.74;74.03;95048.97;4921819;29;20305;-76
2023/07/30 03:30:01;;;;;;;6.03;3.90;;;;;;;19.91;73.37;95043.53;4978701;28;20233;-76
2023/07/30 03:32:26;;;;;;;7.38;3.42;;;;;;;19.91;73.27;95054.97;4898286;29;20237;-76
2023/07/30 03:34:52;;;;;;;5.03;3.73;;;;;;;19.76;73.83;95046.84;4934539;28;20248;-75
2023/07/30 03:37:17;;;;;;;4.13;3.45;;;;;;;19.77;73.83;95050.31;4910965;28;20229;-76
2023/07/30 03:39:43;;;;;;;3.90;3.30;;;;;;;19.76;73.98;95051.38;4915740;29;20229;-76
2023/07/30 03:42:08;;;;;;;6.10;3.80;;;;;;;19.83;73.67;95049.28;4914871;28;20236;-76
2023/07/30 03:44:34;;;;;;;6.15;3.42;;;;;;;19.78;73.51;95044.75;4912869;29;20239;-77
2023/07/30 03:46:59;;;;;;;5.97;3.30;;;;;;;19.80;73.69;95050.59;4929210;29;20726;-76
2023/07/30 03:49:25;;;;;;;6.82;3.60;;;;;;;19.93;73.07;95052.84;4928112;29;20710;-76
2023/07/30 03:51:50;;;;;;;5.55;3.72;;;;;;;19.91;73.15;95051.50;4933908;29;20291;-76
2023/07/30 03:54:16;;;;;;;5.15;3.60;;;;;;;19.87;73.39;95058.38;4932777;28;20229;-76
2023/07/30 03:56:41;;;;;;;4.27;3.50;;;;;;;19.87;72.96;95053.84;4929224;29;20229;-76
2023/07/30 03:59:07;;;;;;;5.15;3.60;;;;;;;19.96;72.46;95060.31;4917061;29;20233;-77
2023/07/30 04:01:33;;;;;;;6.47;3.83;;;;;;;19.87;73.36;95061.81;4930551;28;20271;-76
2023/07/30 04:03:59;;;;;;;4.88;3.50;;;;;;;19.87;72.92;95069.78;4951710;28;20221;-75
2023/07/30 04:06:24;;;;;;;5.90;3.90;;;;;;;20.01;71.87;95072.84;4937962;28;20229;-76
2023/07/30 04:08:50;;;;;;;7.03;3.70;;;;;;;19.95;72.10;95068.53;4936562;29;20260;-76
2023/07/30 04:11:15;;;;;;;4.68;3.47;;;;;;;20.00;72.63;95060.59;4919752;29;20670;-77
2023/07/30 04:13:41;;;;;;;4.85;3.67;;;;;;;20.13;72.29;95070.81;4930780;29;20237;-76
2023/07/30 04:16:07;;;;;;;7.53;3.70;;;;;;;20.24;71.73;95063.72;4935718;29;20237;-77
2023/07/30 04:18:32;;;;;;;5.60;3.50;;;;;;;20.09;72.63;95070.50;4935154;28;20241;-75
2023/07/30 04:20:58;;;;;;;7.80;3.72;;;;;;;20.19;72.54;95064.47;4930497;29;20295;-76
2023/07/30 04:23:23;;;;;;;5.00;3.40;;;;;;;20.27;72.21;95063.22;4923259;29;20287;-77
2023/07/30 04:25:50;;;;;;;4.97;3.53;;;;;;;20.20;72.11;95071.38;4919955;29;20248;-76
2023/07/30 04:28:15;;;;;;;5.33;3.50;;;;;;;20.43;71.64;95071.03;4945646;28;20322;-75
2023/07/30 04:30:41;;;;;;;7.13;4.00;;;;;;;20.33;71.95;95070.16;4929751;29;20610;-75
2023/07/30 04:33:06;;;;;;;7.00;3.78;;;;;;;20.27;72.17;95066.69;4915080;28;20221;-76
2023/07/30 04:35:32;;;;;;;5.20;3.90;;;;;;;20.39;71.66;95066.50;4930620;28;20257;-76
2023/07/30 04:37:57;;;;;;;6.47;4.00;;;;;;;20.48;71.31;95067.59;4916494;29;20238;-77
2023/07/30 04:40:23;;;;;;;9.23;4.13;;;;;;;20.55;71.14;95070.84;4933113;28;20233;-75
2023/07/30 04:42:48;;;;;;;5.55;3.85;;;;;;;20.49;71.74;95070.00;4917548;29;20228;-77
2023/07/30 04:45:14;;;;;;;5.90;3.80;;;;;;;20.50;72.03;95074.25;4977958;28;20355;-76
2023/07/30 04:47:39;;;;;;;5.17;3.63;;;;;;;20.50;71.76;95073.47;4916620;28;20240;-77
2023/07/30 04:50:05;;;;;;;5.57;4.00;;;;;;;20.63;71.24;95065.03;4934546;29;20240;-77
2023/07/30 04:52:31;;;;;;;5.27;3.83;;;;;;;20.77;71.40;95071.50;4913722;29;20261;-77
2023/07/30 04:54:56;;;;;;;7.25;3.90;;;;;;;20.75;71.38;95074.38;4960227;28;20245;-77
2023/07/30 04:57:22;;;;;;;5.20;3.70;;;;;;;20.49;72.52;95069.22;4952521;28;20884;-75
2023/07/30 04:59:48;;;;;;;6.43;3.70;;;;;;;20.68;71.67;95076.47;4946578;28;20240;-76
2023/07/30 05:02:13;;;;;;;5.55;3.67;;;;;;;20.85;71.25;95076.28;4925878;29;20240;-76
2023/07/30 05:04:38;;;;;;;5.82;3.63;;;;;;;20.95;71.11;95072.88;4929794;28;20621;-77
2023/07/30 05:07:04;;;;;;;5.75;3.80;;;;;;;21.03;70.27;95075.06;4933044;29;20241;-77
2023/07/30 05:09:30;;;;;;;7.28;3.88;;;;;;;21.17;69.07;95076.19;4930574;28;20233;-77
2023/07/30 05:11:55;;;;;;;6.70;3.78;;;;;;;21.21;68.51;95077.28;4930054;29;20233;-75
2023/07/30 05:14:21;;;;;;;4.45;3.78;;;;;;;21.32;68.05;95073.59;4977135;28;20326;-76
2023/07/30 05:16:46;;;;;;;5.15;3.88;;;;;;;21.45;67.35;95071.22;4934748;29;20248;-76
2023/07/30 05:19:12;;;;;;;4.78;4.05;;;;;;;21.65;66.39;95069.66;4933454;29;20271;-76
2023/07/30 05:21:38;;;;;;;4.43;3.90;;;;;;;21.86;65.50;95068.66;4920203;29;20232;-77
2023/07/30 05:24:04;;;;;;;5.35;4.10;;;;;;;22.03;64.71;95069.19;4934429;29;20626;-75
2023/07/30 05:26:29;;;;;;;6.55;4.38;;;;;;;22.37;64.61;95064.09;4935293;29;20225;-76
2023/07/30 05:28:55;;;;;;;5.80;4.45;;;;;;;22.17;65.61;95072.91;4922308;29;20272;-77
2023/07/30 05:31:21;;;;;;;6.85;4.20;;;;;;;23.10;63.34;95068.72;4933906;29;20892;-76
2023/07/30 05:33:47;;;;;;;6.15;4.18;;;;;;;24.09;60.09;95081.84;4927608;29;20239;-77
2023/07/30 05:36:12;;;;;;;7.22;4.10;;;;;;;25.16;56.92;95078.91;4975457;28;20320;-77
2023/07/30 05:38:38;;;;;;;5.93;4.35;;;;;;;23.85;60.84;95075.56;4980899;28;20271;-76
2023/07/30 05:41:03;;;;;;;11.98;4.80;;;;;;;23.09;63.13;95074.34;4924453;29;20229;-75
2023/07/30 05:43:29;;;;;;;8.43;4.55;;;;;;;22.85;62.84;95082.19;4927156;28;20233;-76
2023/07/30 05:45:54;;;;;;;10.13;4.93;;;;;;;22.70;63.89;95075.00;4936797;28;20225;-76
2023/07/30 05:48:20;;;;;;;7.38;4.60;;;;;;;22.46;65.14;95075.81;4933554;29;20286;-76
2023/07/30 05:50:45;;;;;;;9.30;4.65;;;;;;;22.47;65.41;95072.09;4937231;28;20236;-75
2023/07/30 05:53:11;;;;;;;6.22;4.70;;;;;;;22.56;64.80;95075.81;4932753;29;20237;-75
2023/07/30 05:55:36;;;;;;;8.77;4.82;;;;;;;22.48;65.30;95077.16;4918093;28;20302;-76
2023/07/30 05:58:02;;;;;;;9.90;5.07;;;;;;;22.40;65.61;95075.03;4922028;29;20229;-75
2023/07/30 06:00:28;;;;;;;7.65;4.38;;;;;;;22.53;64.75;95084.34;4935357;28;20756;-75
2023/07/30 06:02:53;;;;;;;8.23;4.63;;;;;;;22.57;65.76;95085.44;4981371;28;20633;-76
2023/07/30 06:05:18;;;;;;;9.75;4.78;;;;;;;22.54;64.97;95086.75;4934439;28;20245;-76
2023/07/30 06:07:45;;;;;;;10.85;5.20;;;;;;;22.68;63.80;95090.50;4918856;28;20237;-75
2023/07/30 06:10:10;;;;;;;10.20;4.90;;;;;;;22.59;64.33;95091.28;4934426;29;20689;-77
2023/07/30 06:12:36;;;;;;;9.05;5.00;;;;;;;22.72;64.07;95083.53;4918524;29;20226;-76
2023/07/30 06:15:01;;;;;;;8.52;4.93;;;;;;;22.58;64.47;95084.34;4926156;29;20256;-75
2023/07/30 06:17:27;;;;;;;7.30;4.75;;;;;;;22.55;65.02;95083.00;4977129;28;20232;-77
2023/07/30 06:19:52;;;;;;;9.82;5.20;;;;;;;22.73;64.73;95077.16;4936296;29;20299;-77
2023/07/30 06:22:17;;;;;;;12.00;4.65;;;;;;;22.75;64.20;95083.00;4931723;29;20640;-77
2023/07/30 06:24:43;;;;;;;9.40;4.93;;;;;;;22.69;64.95;95076.06;4931059;29;20229;-77
2023/07/30 06:27:12;;;;;;;7.40;5.07;;;;;;;22.91;63.79;95078.41;4930631;29;20225;-77
2023/07/30 06:29:37;;;;;;;10.90;5.18;;;;;;;23.16;61.83;95077.53;4935595;28;20310;-78
2023/07/30 06:32:03;;;;;;;11.75;4.47;;;;;;;23.17;60.92;95079.91;4932931;29;20236;-78
2023/07/30 06:34:29;;;;;;;9.63;4.93;;;;;;;23.09;61.52;95082.34;4934673;28;20638;-78
2023/07/30 06:36:54;;;;;;;7.65;4.72;;;;;;;23.24;61.70;95077.75;5002124;28;20226;-78
2023/07/30 06:39:20;;;;;;;6.10;4.75;;;;;;;23.25;61.48;95067.84;4956319;28;20730;-77
2023/07/30 06:41:45;;;;;;;8.50;5.05;;;;;;;23.38;60.26;95069.97;4933811;29;20346;-77
2023/07/30 06:44:11;;;;;;;7.15;4.60;;;;;;;23.34;61.02;95075.03;4939137;28;20236;-79
2023/07/30 06:46:36;;;;;;;8.07;4.70;;;;;;;23.42;59.55;95065.66;4939274;28;20244;-78
2023/07/30 06:49:02;;;;;;;6.68;4.43;;;;;;;23.44;59.43;95061.66;4926646;29;20240;-77
2023/07/30 06:51:28;;;;;;;8.55;4.90;;;;;;;23.51;59.58;95050.66;4937003;29;20237;-78
2023/07/30 06:53:53;;;;;;;11.93;4.60;;;;;;;23.72;58.75;95054.78;4961261;28;20248;-78
2023/07/30 06:56:18;;;;;;;9.13;4.80;;;;;;;23.71;58.37;95055.06;4963172;28;20236;-79
2023/07/30 06:58:44;;;;;;;6.93;4.45;;;;;;;23.63;58.61;95051.09;4949633;28;20236;-77
2023/07/30 07:01:09;;;;;;;8.77;4.50;;;;;;;23.76;58.80;95049.69;4950295;28;20234;-79
2023/07/30 07:03:35;;;;;;;12.85;4.93;;;;;;;23.98;58.35;95055.38;4931660;28;20295;-78
2023/07/30 07:06:00;;;;;;;10.35;5.05;;;;;;;23.86;57.20;95047.72;5003538;28;20657;-77
2023/07/30 07:08:27;;;;;;;10.10;4.35;;;;;;;23.82;57.67;95044.03;4930942;28;20236;-79
2023/07/30 07:10:52;;;;;;;9.48;4.43;;;;;;;23.88;57.63;95042.91;4964173;28;20287;-77
2023/07/30 07:13:18;;;;;;;9.18;4.65;;;;;;;24.01;57.08;95044.94;4922533;28;20249;-77
2023/07/30 07:15:44;;;;;;;9.45;4.47;;;;;;;24.08;56.66;95048.13;4935194;29;20399;-77
2023/07/30 07:18:09;;;;;;;6.25;4.22;;;;;;;24.16;56.06;95045.91;4926595;28;20237;-78
2023/07/30 07:20:35;;;;;;;8.20;4.32;;;;;;;24.32;55.70;95037.47;4932575;28;20233;-79
2023/07/30 07:23:01;;;;;;;10.50;4.30;;;;;;;24.40;55.25;95028.84;4934954;29;20240;-78
2023/07/30 07:25:26;;;;;;;6.60;4.10;;;;;;;24.38;55.35;95031.00;4933912;28;20237;-77
2023/07/30 07:27:52;;;;;;;7.18;4.25;;;;;;;24.40;54.56;95020.81;4931485;29;20229;-79
2023/07/30 07:30:17;;;;;;;8.43;4.10;;;;;;;24.46;53.93;95027.69;4917539;28;21024;-77
2023/07/30 07:32:43;;;;;;;6.95;4.25;;;;;;;24.45;54.27;95020.78;4928559;29;20259;-79
2023/07/30 07:35:09;;;;;;;9.10;4.15;;;;;;;24.51;53.68;95018.81;4932215;28;20643;-78
2023/07/30 07:37:34;;;;;;;7.28;4.28;;;;;;;24.65;53.62;95017.88;4933945;28;22121;-77
2023/07/30 07:40:00;;;;;;;9.00;4.50;;;;;;;24.85;53.76;95019.53;4933190;29;20233;-78
2023/07/30 07:42:25;;;;;;;9.25;4.47;;;;;;;25.10;52.42;95016.53;4931780;28;20263;-76
2023/07/30 07:44:51;;;;;;;6.32;4.40;;;;;;;25.15;51.73;95018.38;4993647;28;20646;-77
2023/07/30 07:47:16;;;;;;;6.45;4.25;;;;;;;25.08;52.59;95024.06;4993059;28;20298;-76
2023/07/30 07:49:42;;;;;;;8.13;4.65;;;;;;;25.07;52.69;95011.78;4912489;29;20252;-77
2023/07/30 07:52:08;;;;;;;5.65;3.92;;;;;;;25.06;52.26;95015.53;4931662;29;20225;-69
2023/07/30 07:54:36;;;;;;;7.40;4.30;;;;;;;25.09;51.91;95009.59;4926991;28;20668;-70
2023/07/30 07:57:02;;;;;;;8.48;4.50;;;;;;;25.21;53.09;95006.50;4919491;28;20230;-68
2023/07/30 07:59:27;;;;;;;11.07;4.35;;;;;;;25.33;51.58;95013.03;4927923;28;20695;-69
2023/07/30 08:01:53;;;;;;;6.95;4.43;;;;;;;25.53;50.99;95013.88;4934386;28;20240;-68
2023/07/30 08:04:21;;;;;;;6.63;4.50;;;;;;;25.52;51.22;94998.84;4928413;28;20238;-68
2023/07/30 08:06:46;;;;;;;7.70;4.45;;;;;;;25.50;52.93;95001.84;4923129;29;20766;-69
2023/07/30 08:09:12;;;;;;;7.53;4.22;;;;;;;25.55;52.21;95003.66;4917816;29;20319;-68
2023/07/30 08:11:37;;;;;;;6.60;4.50;;;;;;;25.63;52.08;94993.03;4980866;28;20259;-69
2023/07/30 08:14:03;;;;;;;7.38;4.63;;;;;;;25.78;51.18;94995.50;4979345;28;20251;-69
2023/07/30 08:16:28;;;;;;;12.05;4.70;;;;;;;25.83;51.22;94990.06;4915730;29;20240;-67
2023/07/30 08:18:54;;;;;;;10.35;5.22;;;;;;;25.84;51.76;94985.50;4926941;29;20408;-69
2023/07/30 08:21:20;;;;;;;10.20;4.88;;;;;;;26.02;51.27;94992.69;4930032;29;20240;-69
2023/07/30 08:23:46;;;;;;;8.70;4.78;;;;;;;26.10;50.07;94994.72;4954874;28;20228;-70
2023/07/30 08:26:12;;;;;;;7.88;4.53;;;;;;;26.22;48.72;94994.28;4949314;28;20233;-69
2023/07/30 08:28:37;;;;;;;7.78;4.78;;;;;;;26.27;48.44;94986.13;4927530;29;20726;-70
2023/07/30 08:31:03;;;;;;;8.80;4.40;;;;;;;26.29;48.95;94983.94;4927335;28;20263;-69
2023/07/30 08:33:29;;;;;;;10.80;4.68;;;;;;;26.33;48.74;94982.25;4941307;28;20233;-69
2023/07/30 08:35:58;;;;;;;8.57;4.75;;;;;;;26.52;47.41;94985.66;4921631;29;20232;-69
2023/07/30 08:38:24;;;;;;;8.15;4.65;;;;;;;26.58;47.25;94982.56;4996085;28;20241;-68
2023/07/30 08:40:50;;;;;;;6.00;4.45;;;;;;;26.62;47.97;94983.59;4917766;29;20821;-70
2023/07/30 08:43:15;;;;;;;4.65;4.10;;;;;;;26.64;47.52;94975.22;5014874;28;20232;-70
2023/07/30 08:45:41;;;;;;;7.10;4.80;;;;;;;26.68;48.02;94971.63;4934354;28;20234;-69
2023/07/30 08:48:07;;;;;;;6.93;4.70;;;;;;;26.82;46.88;94976.25;4939148;28;20233;-69
2023/07/30 08:50:32;;;;;;;9.35;4.70;;;;;;;27.00;47.07;94969.94;4915301;28;20233;-69
2023/07/30 08:52:58;;;;;;;10.93;4.28;;;;;;;27.22;46.51;94970.81;4933040;29;20241;-69
2023/07/30 08:55:23;;;;;;;8.45;4.53;;;;;;;27.30;45.94;94975.47;4928634;28;20261;-68
2023/07/30 08:57:49;;;;;;;7.75;4.20;;;;;;;27.36;45.78;94971.59;4950265;28;20693;-69
2023/07/30 09:00:15;;;;;;;5.78;4.30;;;;;;;27.33;45.63;94971.38;4934447;28;20241;-69
2023/07/30 09:02:47;;;;;;;9.52;4.50;;;;;;;27.39;44.67;94964.84;4952568;28;20232;-69
2023/07/30 09:05:13;;;;;;;6.47;4.05;;;;;;;27.53;45.15;94954.03;4937957;28;20232;-68
2023/07/30 09:07:39;;;;;;;11.07;4.35;;;;;;;27.57;44.45;94958.47;4935401;28;20926;-69
2023/07/30 09:10:04;;;;;;;5.22;4.07;;;;;;;27.58;44.41;94957.41;4928478;28;20248;-69
2023/07/30 09:12:34;;;;;;;9.65;4.30;;;;;;;27.83;42.99;94959.47;4937908;28;20233;-69
2023/07/30 09:15:00;;;;;;;6.90;4.25;;;;;;;27.77;43.14;94959.91;4928553;28;20282;-70
2023/07/30 09:17:25;;;;;;;6.10;4.15;;;;;;;27.89;43.02;94960.94;4918952;28;20255;-71
2023/07/30 09:19:52;;;;;;;5.07;4.30;;;;;;;27.93;41.84;94958.41;4935157;28;20283;-68
2023/07/30 09:22:27;;;;;;;4.53;3.92;;;;;;;28.10;41.12;94952.38;4954497;28;20363;-69
2023/07/30 09:24:54;;;;;;;5.82;4.47;;;;;;;28.12;41.83;94964.44;4960277;28;20258;-69
2023/07/30 09:27:22;;;;;;;7.88;4.32;;;;;;;28.18;42.10;94951.66;4938092;28;20236;-70
2023/07/30 09:29:52;;;;;;;6.72;4.20;;;;;;;28.26;40.05;94950.88;4923569;28;20340;-69
2023/07/30 09:32:18;;;;;;;4.40;3.50;;;;;;;28.30;39.12;94946.47;4939132;28;20232;-70
2023/07/30 09:34:44;;;;;;;5.05;3.80;;;;;;;28.38;37.73;94940.31;4929797;28;20270;-69
2023/07/30 09:37:10;;;;;;;5.45;3.95;;;;;;;28.50;37.80;94940.53;4924725;28;20236;-69
2023/07/30 09:39:37;;;;;;;5.40;3.63;;;;;;;28.67;36.93;94935.22;4935031;28;20247;-69
2023/07/30 09:42:02;;;;;;;6.93;3.58;;;;;;;28.77;37.96;94931.47;4938573;28;20256;-69
2023/07/30 09:44:28;;;;;;;4.63;3.47;;;;;;;28.78;37.71;94924.97;4935405;28;20248;-70
2023/07/30 09:46:53;;;;;;;5.55;3.42;;;;;;;28.81;36.31;94930.50;4947905;28;20232;-68
2023/07/30 09:49:19;;;;;;;4.63;3.70;;;;;;;29.05;36.35;94927.41;4950487;28;20225;-69
2023/07/30 09:51:44;;;;;;;5.57;3.83;;;;;;;29.21;36.05;94929.34;4937757;28;20247;-70
2023/07/30 09:54:13;;;;;;;6.20;3.80;;;;;;;29.30;35.74;94921.28;4955218;28;20237;-71
2023/07/30 09:56:40;;;;;;;5.90;4.05;;;;;;;29.39;35.81;94918.56;4942129;28;20369;-70
2023/07/30 09:59:06;;;;;;;5.50;4.22;;;;;;;29.38;36.60;94919.69;4962792;28;20245;-70
2023/07/30 10:01:33;;;;;;;8.25;4.30;;;;;;;29.45;37.65;94914.63;4924254;28;20294;-70
2023/07/30 10:03:58;;;;;;;8.10;4.30;;;;;;;29.50;36.86;94920.63;4951596;28;20241;-68
2023/07/30 10:06:25;;;;;;;6.55;4.00;;;;;;;29.57;34.91;94906.69;4952167;28;20240;-69
2023/07/30 10:08:51;;;;;;;5.50;3.90;;;;;;;29.69;36.60;94910.28;4951549;28;20233;-69
2023/07/30 10:11:16;;;;;;;6.07;4.13;;;;;;;29.83;35.93;94902.06;4951486;28;20677;-69
2023/07/30 10:13:42;;;;;;;7.03;4.13;;;;;;;29.93;34.84;94894.41;4936197;28;20224;-70
2023/07/30 10:16:13;;;;;;;7.80;4.13;;;;;;;29.77;36.60;94892.53;4954394;28;20240;-69
2023/07/30 10:18:40;;;;;;;6.50;4.20;;;;;;;29.81;36.90;94891.56;4953691;28;20236;-68
2023/07/30 10:21:08;;;;;;;6.68;4.53;;;;;;;29.96;36.48;94887.56;4952492;28;20228;-70
2023/07/30 10:23:33;;;;;;;6.60;4.60;;;;;;;29.84;35.59;94882.84;4952019;28;20237;-70
2023/07/30 10:25:59;;;;;;;6.90;4.15;;;;;;;29.89;35.45;94885.38;4940338;28;20294;-70
2023/07/30 10:28:35;;;;;;;8.40;4.30;;;;;;;29.95;35.08;94881.38;4950109;28;20224;-70
2023/07/30 10:31:04;;;;;;;7.15;4.40;;;;;;;30.08;34.80;94876.88;4939535;28;20232;-70
2023/07/30 10:33:53;;;;;;;37.40;4.90;;;;;;;30.28;35.18;94872.69;4950458;28;20359;-69
2023/07/30 10:36:32;;;;;;;7.40;4.05;;;;;;;30.29;34.39;94880.47;4937884;28;20228;-71
2023/07/30 10:39:19;;;;;;;7.25;4.57;;;;;;;30.31;34.33;94872.06;4944094;28;20748;-71
2023/07/30 10:41:51;;;;;;;5.70;4.25;;;;;;;30.29;34.55;94872.34;4986657;28;21057;-70
2023/07/30 10:44:33;;;;;;;5.07;4.35;;;;;;;30.47;34.14;94867.72;4945229;28;20272;-69
2023/07/30 10:46:59;;;;;;;6.35;4.60;;;;;;;30.61;34.19;94863.66;4934228;29;20255;-70
2023/07/30 10:49:25;;;;;;;6.75;4.38;;;;;;;30.64;35.21;94857.59;4945247;28;20332;-72
2023/07/30 10:51:55;;;;;;;6.20;4.20;;;;;;;30.59;34.79;94862.41;4932001;29;20681;-70
2023/07/30 10:54:21;;;;;;;6.65;4.30;;;;;;;30.48;34.17;94853.06;4929468;29;20290;-72
2023/07/30 10:56:46;;;;;;;7.00;4.50;;;;;;;30.51;35.24;94841.63;4930991;28;20234;-71
2023/07/30 10:59:14;;;;;;;5.93;4.55;;;;;;;30.72;34.87;94844.34;4933320;29;20699;-70
2023/07/30 11:01:44;;;;;;;5.38;4.18;;;;;;;30.78;35.02;94843.03;4927954;29;20230;-71
2023/07/30 11:04:11;;;;;;;5.57;4.30;;;;;;;30.91;33.22;94842.00;5001785;28;20761;-72
2023/07/30 11:06:36;;;;;;;5.00;4.50;;;;;;;30.98;33.42;94834.16;4928761;28;20291;-70
2023/07/30 11:09:02;;;;;;;6.65;4.50;;;;;;;31.01;33.94;94830.81;4932736;29;20668;-71
2023/07/30 11:11:28;;;;;;;8.70;4.60;;;;;;;30.97;33.07;94817.19;4922876;28;20330;-71
2023/07/30 11:13:54;;;;;;;5.85;4.75;;;;;;;30.90;33.24;94821.53;4936173;28;20225;-71
2023/07/30 11:16:19;;;;;;;7.57;4.50;;;;;;;30.99;33.64;94816.84;4930771;28;20249;-70
2023/07/30 11:18:47;;;;;;;6.75;4.45;;;;;;;31.12;33.77;94813.09;4970327;28;20247;-71
2023/07/30 11:21:14;;;;;;;9.30;4.70;;;;;;;31.16;33.78;94814.78;4953931;28;20240;-69
2023/07/30 11:23:41;;;;;;;5.60;4.57;;;;;;;31.20;33.15;94802.19;4928075;28;20244;-71
2023/07/30 11:26:08;;;;;;;7.88;4.75;;;;;;;31.31;32.74;94805.28;4948626;28;20236;-72